Time;durP1;ratioP1;P1;durP2;ratioP2;P2;SDS_P1;SDS_P2;PMS_P1;PMS_P2;Temp;Humidity;BMP_temperature;BMP_pressure;BME280_temperature;BME280_humidity;BME280_pressure;Samples;Min_cycle;Max_cycle;Signal;HPM_P1;HPM_P2
2024/01/03 00:01:06;;;;;;;9.20;2.22;;;8.90;99.90;;;;;;5071973;28;20071;-84
2024/01/03 00:03:32;;;;;;;13.07;2.63;;;8.80;99.90;;;;;;5071151;28;20163;-83
2024/01/03 00:06:00;;;;;;;7.25;2.85;;;8.80;99.90;;;;;;5054804;28;20040;-85
2024/01/03 00:08:29;;;;;;;13.23;2.60;;;8.80;99.90;;;;;;5071333;28;20052;-83
2024/01/03 00:10:57;;;;;;;11.20;2.35;;;8.80;99.90;;;;;;5071269;28;20049;-83
2024/01/03 00:13:37;;;;;;;9.57;2.25;;;8.70;99.90;;;;;;5070847;28;20129;-82
2024/01/03 00:16:08;;;;;;;16.25;2.95;;;8.70;99.90;;;;;;5071133;28;20054;-82
2024/01/03 00:18:47;;;;;;;14.23;2.65;;;8.70;99.90;;;;;;5070460;28;20502;-82
2024/01/03 00:21:25;;;;;;;13.63;2.45;;;8.70;99.90;;;;;;5075260;28;20071;-82
2024/01/03 00:23:56;;;;;;;10.70;2.35;;;8.70;99.90;;;;;;5074813;28;20367;-82
2024/01/03 00:26:27;;;;;;;13.80;2.55;;;8.70;99.90;;;;;;5074805;28;20082;-83
2024/01/03 00:28:52;;;;;;;14.88;2.75;;;8.70;99.90;;;;;;5074766;28;20060;-83
2024/01/03 00:31:21;;;;;;;12.40;2.78;;;8.70;99.90;;;;;;5058477;28;20396;-82
2024/01/03 00:33:47;;;;;;;12.40;2.75;;;8.60;99.90;;;;;;5074478;28;20146;-82
2024/01/03 00:36:16;;;;;;;10.85;2.40;;;8.70;99.90;;;;;;5074818;28;20127;-82
2024/01/03 00:38:43;;;;;;;9.63;2.17;;;8.60;99.90;;;;;;5074679;28;20075;-81
2024/01/03 00:41:09;;;;;;;15.85;3.08;;;8.60;99.90;;;;;;5074676;28;20511;-82
2024/01/03 00:43:41;;;;;;;11.90;2.88;;;8.60;99.90;;;;;;5057449;28;20047;-81
2024/01/03 00:46:08;;;;;;;10.75;2.53;;;8.60;99.90;;;;;;5074049;28;20055;-83
2024/01/03 00:48:34;;;;;;;12.65;2.60;;;8.60;99.90;;;;;;5074339;28;20143;-80
2024/01/03 00:51:01;;;;;;;9.77;2.75;;;8.50;99.90;;;;;;5073989;28;20510;-82
2024/01/03 00:53:28;;;;;;;9.88;2.47;;;8.50;99.90;;;;;;5074164;28;20061;-82
2024/01/03 00:55:54;;;;;;;13.15;3.17;;;8.50;99.90;;;;;;5074062;28;20087;-81
2024/01/03 00:58:20;;;;;;;13.38;2.70;;;8.50;99.90;;;;;;5073967;28;20142;-82
2024/01/03 01:00:46;;;;;;;9.10;2.15;;;8.50;99.90;;;;;;5073834;28;20044;-81
2024/01/03 01:03:12;;;;;;;14.77;2.72;;;8.50;99.90;;;;;;5057544;28;20357;-82
2024/01/03 01:05:39;;;;;;;14.50;3.08;;;8.40;99.90;;;;;;5073578;28;20124;-81
2024/01/03 01:08:05;;;;;;;11.63;3.38;;;8.40;99.90;;;;;;5074888;28;20040;-82
2024/01/03 01:10:31;;;;;;;14.18;3.30;;;8.50;99.90;;;;;;5057618;28;20052;-82
2024/01/03 01:12:57;;;;;;;17.48;3.30;;;8.50;99.90;;;;;;5073861;28;20125;-83
2024/01/03 01:15:23;;;;;;;11.48;2.78;;;8.50;99.90;;;;;;5073978;28;20040;-82
2024/01/03 01:17:48;;;;;;;18.15;3.58;;;8.50;99.90;;;;;;5057069;28;20048;-83
2024/01/03 01:20:14;;;;;;;11.23;3.08;;;8.50;99.90;;;;;;5074044;28;20197;-85
2024/01/03 01:22:40;;;;;;;15.07;3.13;;;8.40;99.90;;;;;;5057086;28;20392;-81
2024/01/03 01:25:06;;;;;;;24.25;3.55;;;8.50;99.90;;;;;;5073788;28;20121;-82
2024/01/03 01:27:32;;;;;;;12.43;2.80;;;8.50;99.90;;;;;;5073978;28;20052;-83
2024/01/03 01:29:57;;;;;;;16.10;3.13;;;8.50;99.90;;;;;;5056763;28;20044;-83
2024/01/03 01:32:23;;;;;;;15.93;3.20;;;8.50;99.90;;;;;;5057026;28;20095;-82
2024/01/03 01:34:49;;;;;;;15.75;3.50;;;8.50;99.90;;;;;;5056627;28;20044;-82
2024/01/03 01:37:14;;;;;;;13.85;2.90;;;8.50;99.90;;;;;;5057334;28;20121;-82
2024/01/03 01:39:40;;;;;;;14.20;3.17;;;8.50;99.90;;;;;;5073525;28;20052;-81
2024/01/03 01:42:06;;;;;;;17.17;3.20;;;8.50;99.90;;;;;;5073393;28;20094;-83
2024/01/03 01:44:32;;;;;;;12.73;2.40;;;8.50;99.90;;;;;;5056739;28;20049;-83
2024/01/03 01:46:58;;;;;;;12.80;2.80;;;8.50;99.90;;;;;;5056559;28;20049;-82
2024/01/03 01:49:26;;;;;;;16.35;2.55;;;8.50;99.90;;;;;;5073559;28;20044;-82
2024/01/03 01:51:53;;;;;;;13.07;2.72;;;8.50;99.90;;;;;;5072881;28;20062;-82
2024/01/03 01:54:19;;;;;;;13.73;3.15;;;8.50;99.90;;;;;;5056935;28;20052;-81
2024/01/03 01:56:47;;;;;;;11.65;2.80;;;8.50;99.90;;;;;;5072594;28;20511;-83
2024/01/03 01:59:14;;;;;;;11.27;2.70;;;8.50;99.90;;;;;;5056538;28;20052;-82
2024/01/03 02:01:41;;;;;;;11.98;2.95;;;8.50;99.90;;;;;;5056280;28;20082;-82
2024/01/03 02:04:08;;;;;;;12.05;2.75;;;8.50;99.90;;;;;;5072845;28;20045;-83
2024/01/03 02:06:35;;;;;;;13.18;3.13;;;8.50;99.90;;;;;;5056441;28;20048;-83
2024/01/03 02:09:02;;;;;;;18.70;3.28;;;8.50;99.90;;;;;;5072997;28;20131;-82
2024/01/03 02:11:28;;;;;;;15.50;2.67;;;8.50;99.90;;;;;;5072988;28;20047;-83
2024/01/03 02:13:53;;;;;;;16.25;2.78;;;8.50;99.90;;;;;;5072595;28;20041;-83
2024/01/03 02:16:19;;;;;;;16.27;3.00;;;8.50;99.90;;;;;;5056551;28;20087;-82
2024/01/03 02:18:46;;;;;;;14.65;2.88;;;8.50;99.90;;;;;;5039946;28;20056;-82
2024/01/03 02:21:16;;;;;;;17.63;3.30;;;8.50;99.90;;;;;;5055688;28;20139;-82
2024/01/03 02:23:42;;;;;;;19.05;3.22;;;8.60;99.90;;;;;;5072825;28;20048;-82
2024/01/03 02:26:08;;;;;;;21.48;3.85;;;8.50;99.90;;;;;;5072135;28;20075;-82
2024/01/03 02:28:35;;;;;;;26.15;3.75;;;8.50;99.90;;;;;;5072819;28;20427;-81
2024/01/03 02:31:00;;;;;;;16.02;2.95;;;8.60;99.90;;;;;;5072280;28;20091;-81
2024/01/03 02:33:26;;;;;;;17.52;3.00;;;8.60;99.90;;;;;;5055881;28;20219;-83
2024/01/03 02:35:52;;;;;;;18.05;3.95;;;8.60;99.90;;;;;;5038523;28;20086;-82
2024/01/03 02:38:18;;;;;;;15.20;3.15;;;8.60;99.90;;;;;;5072675;28;20102;-82
2024/01/03 02:40:44;;;;;;;17.48;3.05;;;8.60;99.90;;;;;;5055990;28;20466;-82
2024/01/03 02:43:10;;;;;;;13.02;3.00;;;8.60;99.90;;;;;;5054778;28;20040;-81
2024/01/03 02:45:36;;;;;;;15.93;3.50;;;8.60;99.90;;;;;;5055503;28;20072;-82
2024/01/03 02:48:02;;;;;;;19.38;3.28;;;8.60;99.90;;;;;;5055202;28;20396;-82
2024/01/03 02:50:28;;;;;;;10.57;2.67;;;8.70;99.90;;;;;;5055165;28;20048;-83
2024/01/03 02:52:53;;;;;;;12.40;2.85;;;8.60;99.90;;;;;;5071107;28;20059;-81
2024/01/03 02:55:21;;;;;;;16.73;3.47;;;8.70;99.90;;;;;;5055373;28;20055;-82
2024/01/03 02:57:46;;;;;;;15.00;3.42;;;8.70;99.90;;;;;;5055533;28;20048;-82
2024/01/03 03:00:13;;;;;;;16.48;2.47;;;8.70;99.90;;;;;;5071451;28;20075;-83
2024/01/03 03:02:38;;;;;;;10.23;1.88;;;8.70;99.90;;;;;;5072208;28;20137;-83
2024/01/03 03:05:04;;;;;;;17.88;2.90;;;8.80;99.90;;;;;;5071568;28;20099;-82
2024/01/03 03:07:30;;;;;;;14.75;3.03;;;8.80;99.90;;;;;;5055565;28;20044;-83
2024/01/03 03:09:56;;;;;;;12.65;2.25;;;8.80;99.90;;;;;;5054965;28;20036;-81
2024/01/03 03:12:21;;;;;;;12.93;2.78;;;8.80;99.90;;;;;;5071824;28;20470;-83
2024/01/03 03:14:47;;;;;;;7.20;1.90;;;8.70;99.90;;;;;;5071908;28;20056;-83
2024/01/03 03:17:13;;;;;;;12.35;2.70;;;8.80;99.90;;;;;;5071586;28;20440;-83
2024/01/03 03:19:39;;;;;;;14.90;2.30;;;8.80;99.90;;;;;;5071833;28;20055;-84
2024/01/03 03:22:04;;;;;;;12.25;2.28;;;8.80;99.90;;;;;;5054486;28;20450;-84
2024/01/03 03:24:30;;;;;;;10.65;2.30;;;8.80;99.90;;;;;;5055105;28;20051;-84
2024/01/03 03:26:56;;;;;;;14.40;2.80;;;8.80;99.90;;;;;;5071512;28;20045;-80
2024/01/03 03:29:21;;;;;;;18.17;3.58;;;8.80;99.90;;;;;;5054866;28;20045;-83
2024/01/03 03:31:47;;;;;;;11.50;2.47;;;8.80;99.90;;;;;;5055141;28;20044;-83
2024/01/03 03:34:17;;;;;;;10.63;2.55;;;8.80;99.90;;;;;;5054592;28;20044;-85
2024/01/03 03:36:43;;;;;;;10.57;2.17;;;8.80;99.90;;;;;;5071480;28;20129;-82
2024/01/03 03:39:08;;;;;;;14.77;2.67;;;8.90;99.90;;;;;;5070948;28;20045;-83
2024/01/03 03:41:35;;;;;;;16.77;2.95;;;8.80;99.90;;;;;;5071563;28;20056;-84
2024/01/03 03:44:01;;;;;;;13.88;3.33;;;8.80;99.90;;;;;;5037815;28;20051;-83
2024/01/03 03:46:27;;;;;;;13.75;3.08;;;8.80;99.90;;;;;;5037904;28;20041;-84
2024/01/03 03:48:52;;;;;;;10.80;2.28;;;8.90;99.90;;;;;;5038054;28;20045;-83
2024/01/03 03:51:18;;;;;;;10.85;2.45;;;8.90;99.90;;;;;;5070754;28;20265;-84
2024/01/03 03:53:44;;;;;;;11.27;2.40;;;8.80;99.90;;;;;;5053245;28;20049;-84
2024/01/03 03:56:20;;;;;;;10.85;2.35;;;8.80;99.90;;;;;;5069948;28;20041;-84
2024/01/03 03:58:45;;;;;;;10.73;2.20;;;8.80;99.90;;;;;;5054426;28;20048;-84
2024/01/03 04:01:11;;;;;;;10.80;1.88;;;8.80;99.90;;;;;;5053653;28;20048;-83
2024/01/03 04:03:37;;;;;;;6.53;1.95;;;8.90;99.90;;;;;;5070701;28;20048;-84
2024/01/03 04:06:02;;;;;;;9.80;2.28;;;8.90;99.90;;;;;;5071169;28;20048;-81
2024/01/03 04:08:28;;;;;;;11.55;2.35;;;8.90;99.90;;;;;;5070896;28;20036;-84
2024/01/03 04:10:54;;;;;;;9.40;1.95;;;8.80;99.90;;;;;;5070483;28;20131;-84
2024/01/03 04:13:19;;;;;;;15.90;2.92;;;8.80;99.90;;;;;;5053404;28;20048;-84
2024/01/03 04:15:45;;;;;;;8.63;2.42;;;8.80;99.90;;;;;;5053370;28;20127;-84
2024/01/03 04:18:11;;;;;;;12.05;2.72;;;8.70;99.90;;;;;;5053121;28;20041;-85
2024/01/03 04:20:36;;;;;;;8.43;2.03;;;8.80;99.90;;;;;;5053883;28;20040;-84
2024/01/03 04:23:02;;;;;;;7.38;2.20;;;8.70;99.90;;;;;;5070043;28;20499;-85
2024/01/03 04:25:28;;;;;;;8.85;1.90;;;8.70;99.90;;;;;;5053119;28;20037;-84
2024/01/03 04:27:54;;;;;;;9.05;2.42;;;8.70;99.90;;;;;;5053497;28;20067;-85
2024/01/03 04:30:19;;;;;;;9.07;2.08;;;8.70;99.90;;;;;;5053839;28;20488;-85
2024/01/03 04:32:45;;;;;;;12.80;2.20;;;8.70;99.90;;;;;;5070252;28;20376;-85
2024/01/03 04:35:11;;;;;;;8.15;2.03;;;8.70;99.90;;;;;;5053192;28;20040;-84
2024/01/03 04:37:36;;;;;;;12.32;2.03;;;8.70;99.90;;;;;;5070194;28;20431;-84
2024/01/03 04:40:02;;;;;;;12.30;2.13;;;8.80;99.90;;;;;;5036886;28;20048;-85
2024/01/03 04:42:28;;;;;;;9.60;2.50;;;8.80;99.90;;;;;;5069749;28;20048;-85
2024/01/03 04:44:54;;;;;;;9.07;2.20;;;8.80;99.90;;;;;;5036630;28;20055;-85
2024/01/03 04:47:19;;;;;;;12.10;2.58;;;8.90;99.90;;;;;;5069577;28;20053;-85
2024/01/03 04:49:45;;;;;;;12.18;2.08;;;8.90;99.90;;;;;;5036733;28;20431;-85
2024/01/03 04:52:11;;;;;;;9.80;2.00;;;8.90;99.90;;;;;;5014395;28;1107635;-84
2024/01/03 04:54:37;;;;;;;5.85;1.92;;;8.90;99.90;;;;;;5070617;28;20135;-85
2024/01/03 04:57:03;;;;;;;10.18;1.85;;;8.90;99.90;;;;;;5070694;28;20140;-85
2024/01/03 04:59:29;;;;;;;6.72;1.73;;;8.90;99.90;;;;;;5020996;28;20213;-84
2024/01/03 05:01:54;;;;;;;6.60;2.22;;;8.80;99.90;;;;;;5070828;28;20523;-85
2024/01/03 05:04:20;;;;;;;6.50;2.00;;;8.80;99.90;;;;;;5053853;28;20045;-85
2024/01/03 05:06:46;;;;;;;9.38;2.22;;;8.80;99.90;;;;;;5058244;28;20040;-85
2024/01/03 05:09:12;;;;;;;11.10;2.53;;;8.80;99.90;;;;;;5057541;28;20156;-80
2024/01/03 05:11:38;;;;;;;9.45;2.40;;;8.80;99.90;;;;;;5057695;28;20052;-85
2024/01/03 05:14:03;;;;;;;6.07;1.77;;;8.80;99.90;;;;;;5074532;28;20391;-86
2024/01/03 05:16:29;;;;;;;9.82;2.20;;;8.80;99.90;;;;;;5074061;28;20403;-85
2024/01/03 05:18:55;;;;;;;13.70;2.55;;;8.90;99.90;;;;;;5058331;28;20040;-85
2024/01/03 05:21:20;;;;;;;9.57;2.53;;;8.90;99.90;;;;;;5057622;28;20124;-85
2024/01/03 05:23:46;;;;;;;11.70;2.53;;;8.90;99.90;;;;;;5057598;28;20037;-86
2024/01/03 05:26:13;;;;;;;11.80;2.47;;;8.90;99.90;;;;;;5073824;28;20048;-83
2024/01/03 05:28:39;;;;;;;14.27;2.35;;;8.90;99.90;;;;;;5073704;28;20561;-86
2024/01/03 05:31:05;;;;;;;14.68;2.40;;;9.00;99.90;;;;;;5074556;28;20052;-86
2024/01/03 05:33:30;;;;;;;12.25;2.90;;;8.90;99.90;;;;;;5057498;28;20155;-86
2024/01/03 05:35:56;;;;;;;12.95;2.60;;;8.90;99.90;;;;;;5074187;28;20050;-85
2024/01/03 05:38:22;;;;;;;11.90;2.10;;;8.90;99.90;;;;;;5073719;28;20048;-86
2024/01/03 05:40:47;;;;;;;11.88;2.40;;;8.90;99.90;;;;;;5075371;28;20533;-86
2024/01/03 05:43:14;;;;;;;9.20;2.58;;;8.90;99.90;;;;;;5042423;28;20496;-83
2024/01/03 05:45:40;;;;;;;10.95;2.60;;;8.90;99.90;;;;;;5073976;28;20052;-87
2024/01/03 05:48:06;;;;;;;10.82;2.63;;;8.90;99.90;;;;;;5057409;28;20472;-86
2024/01/03 05:50:31;;;;;;;8.85;2.13;;;8.90;99.90;;;;;;5073260;28;20488;-82
2024/01/03 05:52:57;;;;;;;10.95;2.95;;;8.80;99.90;;;;;;5056441;28;20056;-83
2024/01/03 05:55:23;;;;;;;7.25;2.25;;;8.80;99.90;;;;;;5073150;28;20113;-85
2024/01/03 05:57:49;;;;;;;4.60;1.45;;;8.70;99.90;;;;;;5073757;28;20139;-84
2024/01/03 06:00:15;;;;;;;9.02;2.05;;;8.70;99.90;;;;;;5056801;28;20048;-84
2024/01/03 06:02:42;;;;;;;6.15;1.70;;;8.60;99.90;;;;;;5073054;28;20079;-86
2024/01/03 06:05:09;;;;;;;7.80;1.95;;;8.60;99.90;;;;;;5073905;28;20405;-86
2024/01/03 06:07:35;;;;;;;8.68;2.42;;;8.60;99.90;;;;;;5041022;28;20399;-85
2024/01/03 06:10:00;;;;;;;14.90;3.38;;;8.50;99.90;;;;;;5057422;28;20051;-86
2024/01/03 06:12:26;;;;;;;22.92;3.80;;;8.60;99.90;;;;;;5073249;28;20044;-86
2024/01/03 06:14:52;;;;;;;22.83;4.97;;;8.60;99.90;;;;;;5056772;28;20158;-86
2024/01/03 06:17:17;;;;;;;20.88;4.68;;;8.60;99.90;;;;;;5072511;28;20048;-87
2024/01/03 06:19:44;;;;;;;22.05;6.03;;;8.60;99.90;;;;;;5073317;28;20045;-87
2024/01/03 06:22:10;;;;;;;23.83;3.58;;;8.70;99.90;;;;;;5073510;28;20098;-87
2024/01/03 06:24:36;;;;;;;27.30;4.85;;;8.70;99.90;;;;;;5056635;28;20045;-86
2024/01/03 06:27:01;;;;;;;19.52;4.50;;;8.80;99.90;;;;;;5078251;28;20048;-87
2024/01/03 06:29:27;;;;;;;18.13;3.60;;;8.80;99.90;;;;;;5076421;28;20041;-87
2024/01/03 06:31:53;;;;;;;21.88;3.80;;;8.80;99.90;;;;;;5073020;28;20059;-86
2024/01/03 06:34:18;;;;;;;26.73;4.65;;;8.80;99.90;;;;;;5073070;28;20098;-86
2024/01/03 06:36:44;;;;;;;20.13;3.83;;;8.90;99.90;;;;;;5056241;28;20032;-87
2024/01/03 06:39:10;;;;;;;25.88;4.05;;;8.90;99.90;;;;;;5073276;28;20043;-88
2024/01/03 06:41:35;;;;;;;21.92;4.32;;;8.90;99.90;;;;;;5056944;28;20471;-85
2024/01/03 06:44:01;;;;;;;23.45;4.93;;;8.90;99.90;;;;;;5073865;28;20036;-88
2024/01/03 06:46:27;;;;;;;22.38;4.32;;;8.80;99.90;;;;;;5073368;28;20048;-87
2024/01/03 06:48:54;;;;;;;17.13;3.58;;;8.90;99.90;;;;;;5056761;28;20337;-84
2024/01/03 06:51:20;;;;;;;20.83;4.35;;;8.90;99.90;;;;;;5073117;28;20057;-87
2024/01/03 06:53:46;;;;;;;18.92;3.67;;;8.90;99.90;;;;;;5056568;28;20116;-88
2024/01/03 06:56:12;;;;;;;22.25;4.50;;;8.90;99.90;;;;;;5024080;28;20052;-88
2024/01/03 06:58:37;;;;;;;20.40;4.13;;;8.90;99.90;;;;;;5056644;28;20036;-89
2024/01/03 07:01:03;;;;;;;24.63;4.15;;;8.90;99.90;;;;;;5073539;28;20097;-88
2024/01/03 07:03:29;;;;;;;18.67;4.00;;;8.90;99.90;;;;;;5056546;28;20098;-86
2024/01/03 07:05:55;;;;;;;20.02;4.25;;;9.00;99.90;;;;;;5074147;28;20443;-88
2024/01/03 07:08:20;;;;;;;23.42;3.63;;;9.00;99.90;;;;;;5062033;28;20052;-85
2024/01/03 07:10:46;;;;;;;19.92;4.20;;;9.00;99.90;;;;;;5095484;28;20070;-88
2024/01/03 07:13:12;;;;;;;22.27;5.55;;;9.00;99.90;;;;;;5070972;28;20117;-88
2024/01/03 07:15:38;;;;;;;22.67;4.00;;;9.00;99.90;;;;;;5065681;28;20104;-88
2024/01/03 07:18:04;;;;;;;21.58;4.18;;;9.10;99.90;;;;;;5080345;28;20059;-88
2024/01/03 07:20:30;;;;;;;22.38;4.70;;;9.00;99.90;;;;;;5068846;28;20446;-82
2024/01/03 07:22:56;;;;;;;28.25;4.43;;;9.10;99.90;;;;;;5086023;28;20052;-87
2024/01/03 07:25:22;;;;;;;19.63;4.47;;;9.10;99.90;;;;;;5072196;28;20050;-83
2024/01/03 07:27:47;;;;;;;21.30;4.53;;;9.10;99.90;;;;;;5071878;28;20128;-84
2024/01/03 07:30:13;;;;;;;22.80;4.55;;;9.10;99.90;;;;;;5038838;28;20110;-85
2024/01/03 07:32:39;;;;;;;24.80;4.38;;;9.00;99.90;;;;;;5055316;28;20052;-86
2024/01/03 07:35:06;;;;;;;25.45;4.78;;;8.90;99.90;;;;;;5055251;28;20044;-85
2024/01/03 07:37:33;;;;;;;26.25;4.57;;;8.90;99.90;;;;;;5071636;28;20060;-82
2024/01/03 07:39:58;;;;;;;14.23;3.78;;;8.90;99.90;;;;;;5071567;28;20120;-86
2024/01/03 07:42:24;;;;;;;20.42;3.92;;;8.90;99.90;;;;;;5055328;28;20233;-81
2024/01/03 07:44:50;;;;;;;20.55;3.80;;;8.90;99.90;;;;;;5037932;28;20044;-81
2024/01/03 07:47:15;;;;;;;17.20;4.20;;;8.90;99.90;;;;;;5054823;28;20422;-81
2024/01/03 07:49:42;;;;;;;24.05;4.38;;;8.90;99.90;;;;;;5071225;28;20176;-82
2024/01/03 07:52:08;;;;;;;20.45;4.35;;;8.90;99.90;;;;;;5071042;28;20105;-81
2024/01/03 07:54:34;;;;;;;21.38;4.18;;;8.90;99.90;;;;;;5037952;28;20045;-80
2024/01/03 07:57:04;;;;;;;20.00;3.28;;;8.90;99.90;;;;;;5071153;28;20061;-80
2024/01/03 07:59:33;;;;;;;14.02;3.40;;;8.90;99.90;;;;;;5054050;28;20056;-80
2024/01/03 08:01:59;;;;;;;14.52;2.90;;;8.90;99.90;;;;;;5038180;28;20079;-80
2024/01/03 08:04:25;;;;;;;13.80;3.17;;;8.90;99.90;;;;;;5070849;28;20106;-80
2024/01/03 08:06:51;;;;;;;13.45;2.80;;;8.90;99.90;;;;;;5054197;28;20127;-80
2024/01/03 08:09:17;;;;;;;14.32;2.97;;;8.90;99.90;;;;;;5054357;28;20048;-82
2024/01/03 08:11:43;;;;;;;16.40;2.95;;;8.80;99.90;;;;;;5054174;28;20052;-79
2024/01/03 08:14:08;;;;;;;19.50;3.35;;;8.80;99.90;;;;;;5054581;28;20051;-81
2024/01/03 08:16:34;;;;;;;18.17;3.30;;;8.90;99.90;;;;;;5038179;28;20051;-85
2024/01/03 08:19:00;;;;;;;20.42;3.65;;;9.00;99.90;;;;;;5071477;28;20040;-84
2024/01/03 08:21:26;;;;;;;14.52;3.28;;;8.90;99.90;;;;;;5072109;28;20040;-87
2024/01/03 08:23:51;;;;;;;17.90;3.78;;;9.00;99.90;;;;;;5058460;28;20094;-84
2024/01/03 08:26:19;;;;;;;21.92;3.70;;;9.00;99.90;;;;;;5038108;28;20392;-85
2024/01/03 08:28:45;;;;;;;17.45;3.45;;;9.00;99.90;;;;;;5071932;28;20064;-84
2024/01/03 08:31:15;;;;;;;24.90;3.90;;;9.00;99.90;;;;;;5079714;28;20051;-88
2024/01/03 08:33:43;;;;;;;20.17;3.95;;;9.00;99.90;;;;;;5060913;28;20509;-82
2024/01/03 08:36:14;;;;;;;21.50;3.83;;;9.00;99.90;;;;;;5071911;28;20057;-85
2024/01/03 08:38:40;;;;;;;14.05;3.60;;;9.00;99.90;;;;;;5072301;28;20123;-81
2024/01/03 08:41:16;;;;;;;15.10;3.92;;;9.00;99.90;;;;;;5073097;28;20103;-85
2024/01/03 08:43:43;;;;;;;14.93;3.60;;;9.00;99.90;;;;;;5058128;28;20044;-83
2024/01/03 08:46:08;;;;;;;17.42;4.00;;;9.00;99.90;;;;;;5061071;28;20098;-85
2024/01/03 08:48:34;;;;;;;18.13;3.92;;;9.00;99.90;;;;;;5059517;28;20048;-87
2024/01/03 08:51:00;;;;;;;14.45;3.47;;;9.00;99.90;;;;;;5041332;28;20091;-84
2024/01/03 08:53:26;;;;;;;12.88;3.15;;;9.10;99.90;;;;;;5075666;28;20047;-86
2024/01/03 08:55:51;;;;;;;13.77;3.00;;;9.00;99.90;;;;;;5074087;28;20086;-83
2024/01/03 08:58:17;;;;;;;11.27;2.72;;;9.00;99.90;;;;;;5074913;28;20040;-83
2024/01/03 09:00:44;;;;;;;13.05;3.00;;;8.90;99.90;;;;;;5074772;28;20396;-82
2024/01/03 09:03:10;;;;;;;15.80;3.17;;;8.90;99.90;;;;;;5057956;28;20123;-82
2024/01/03 09:05:36;;;;;;;17.73;4.70;;;8.90;99.90;;;;;;5057667;28;20045;-84
2024/01/03 09:08:02;;;;;;;15.52;3.20;;;8.90;99.90;;;;;;5074857;28;20093;-85
2024/01/03 09:10:27;;;;;;;20.60;3.58;;;8.90;99.90;;;;;;5074989;28;20040;-85
2024/01/03 09:12:53;;;;;;;15.63;3.70;;;8.80;99.90;;;;;;5041378;28;20528;-86
2024/01/03 09:15:19;;;;;;;15.68;3.40;;;8.90;99.90;;;;;;5058632;28;20083;-84
2024/01/03 09:17:45;;;;;;;21.95;3.78;;;9.00;99.90;;;;;;5041735;28;20044;-84
2024/01/03 09:20:11;;;;;;;18.10;3.72;;;9.00;99.90;;;;;;5041159;28;20377;-85
2024/01/03 09:22:38;;;;;;;14.40;3.30;;;9.00;99.90;;;;;;5074096;28;20048;-82
2024/01/03 09:25:04;;;;;;;18.30;3.55;;;9.10;99.90;;;;;;5073381;28;20045;-83
2024/01/03 09:27:30;;;;;;;19.10;4.40;;;9.20;99.90;;;;;;5074400;28;20407;-85
2024/01/03 09:29:56;;;;;;;16.63;3.65;;;9.20;99.90;;;;;;5040763;28;20059;-85
2024/01/03 09:32:21;;;;;;;16.35;3.53;;;9.20;99.90;;;;;;5041176;28;20134;-85
2024/01/03 09:34:47;;;;;;;21.70;3.53;;;9.30;99.90;;;;;;5057221;28;20052;-81
2024/01/03 09:37:14;;;;;;;11.70;2.92;;;9.30;99.90;;;;;;5073581;28;20119;-83
2024/01/03 09:39:40;;;;;;;17.25;3.83;;;9.30;99.90;;;;;;5057080;28;20051;-83
2024/01/03 09:42:07;;;;;;;9.85;2.67;;;9.30;99.90;;;;;;5073379;28;20476;-83
2024/01/03 09:44:34;;;;;;;18.60;3.15;;;9.20;99.90;;;;;;5079271;28;20094;-88
2024/01/03 09:47:00;;;;;;;10.68;2.80;;;9.20;99.90;;;;;;5070036;28;20048;-85
2024/01/03 09:49:26;;;;;;;14.23;3.55;;;9.20;99.90;;;;;;5060624;28;20053;-86
2024/01/03 09:51:52;;;;;;;15.25;3.13;;;9.20;99.90;;;;;;5041190;28;20138;-82
2024/01/03 09:54:19;;;;;;;9.90;3.33;;;9.00;99.90;;;;;;5057753;28;20071;-86
2024/01/03 09:56:47;;;;;;;10.73;2.65;;;9.10;99.90;;;;;;5073739;28;20052;-89
2024/01/03 09:59:17;;;;;;;14.15;2.90;;;9.10;99.90;;;;;;5073574;28;20094;-86
2024/01/03 10:01:56;;;;;;;13.48;2.38;;;9.10;99.90;;;;;;5057462;28;20041;-82
2024/01/03 10:04:22;;;;;;;14.05;2.75;;;9.10;99.90;;;;;;5073344;28;20052;-85
2024/01/03 10:06:53;;;;;;;13.95;3.35;;;9.10;99.90;;;;;;5074175;28;20041;-84
2024/01/03 10:09:19;;;;;;;15.43;3.25;;;9.10;99.90;;;;;;5057192;28;20048;-82
2024/01/03 10:11:45;;;;;;;9.50;2.38;;;9.20;99.90;;;;;;5073123;28;20040;-81
2024/01/03 10:14:17;;;;;;;9.98;2.20;;;9.20;99.90;;;;;;5073063;28;20494;-86
2024/01/03 10:16:46;;;;;;;9.95;2.40;;;9.20;99.90;;;;;;5074345;28;20098;-87
2024/01/03 10:19:13;;;;;;;9.63;2.58;;;9.10;99.90;;;;;;5080416;28;20040;-90
2024/01/03 10:21:46;;;;;;;11.23;2.70;;;9.20;99.90;;;;;;5067166;28;20049;-91
2024/01/03 10:24:16;;;;;;;13.32;3.08;;;9.20;99.90;;;;;;5091053;28;20040;-90
2024/01/03 10:26:42;;;;;;;14.95;2.67;;;9.20;99.90;;;;;;5055508;28;20115;-87
2024/01/03 10:29:19;;;;;;;10.85;2.97;;;9.30;99.90;;;;;;5081761;28;20052;-91
2024/01/03 10:31:48;;;;;;;14.70;2.90;;;9.30;99.90;;;;;;5085955;28;20071;-88
2024/01/03 10:34:23;;;;;;;10.82;2.55;;;9.40;99.90;;;;;;5105672;28;20052;-88
2024/01/03 10:36:52;;;;;;;14.32;2.80;;;9.30;99.90;;;;;;5081131;28;20144;-91
2024/01/03 10:39:20;;;;;;;13.95;3.08;;;9.30;99.90;;;;;;5082082;28;20040;-91
2024/01/03 10:41:56;;;;;;;13.90;2.95;;;9.30;99.90;;;;;;5063307;28;20561;-83
2024/01/03 10:44:22;;;;;;;16.08;2.97;;;9.30;99.90;;;;;;5065600;28;20051;-85
2024/01/03 10:46:49;;;;;;;11.20;2.70;;;9.20;99.90;;;;;;5061049;28;20038;-90
2024/01/03 10:49:18;;;;;;;14.10;2.72;;;9.20;99.90;;;;;;5087835;28;20457;-88
2024/01/03 10:51:48;;;;;;;14.10;2.60;;;9.20;99.90;;;;;;5073397;28;20049;-83
2024/01/03 10:54:15;;;;;;;14.25;2.60;;;9.10;99.90;;;;;;5061932;28;20113;-89
2024/01/03 10:56:48;;;;;;;11.45;2.40;;;9.10;99.90;;;;;;5065738;28;20108;-87
2024/01/03 10:59:15;;;;;;;12.50;2.67;;;9.10;99.90;;;;;;5085061;28;20052;-88
2024/01/03 11:01:55;;;;;;;11.77;2.50;;;9.00;99.90;;;;;;5092123;28;20052;-86
2024/01/03 11:04:58;;;;;;;7.88;1.98;;;9.10;99.90;;;;;;5090278;28;20229;-84
2024/01/03 11:07:46;;;;;;;10.00;2.10;;;9.10;99.90;;;;;;5084596;28;20040;-85
2024/01/03 11:10:48;;;;;;;12.77;2.60;;;9.20;99.90;;;;;;5076632;28;20055;-80
2024/01/03 11:13:32;;;;;;;13.50;2.85;;;9.20;99.90;;;;;;5072530;28;20052;-78
2024/01/03 11:15:59;;;;;;;13.57;3.67;;;9.40;99.90;;;;;;5056251;28;20109;-83
2024/01/03 11:18:40;;;;;;;16.05;2.65;;;9.50;99.90;;;;;;5071333;28;20048;-82
2024/01/03 11:21:26;;;;;;;16.67;4.55;;;9.60;99.90;;;;;;5071953;28;20036;-83
2024/01/03 11:23:52;;;;;;;13.73;3.45;;;9.70;99.90;;;;;;5056156;28;20056;-83
2024/01/03 11:26:18;;;;;;;16.65;3.33;;;9.70;99.90;;;;;;5074514;28;20044;-82
2024/01/03 11:28:50;;;;;;;13.75;3.00;;;9.80;99.90;;;;;;5075232;28;20147;-83
2024/01/03 11:31:54;;;;;;;23.20;3.63;;;9.80;99.90;;;;;;5073437;28;20044;-84
2024/01/03 11:34:47;;;;;;;18.05;3.03;;;9.90;99.90;;;;;;5073099;28;20091;-84
2024/01/03 11:37:16;;;;;;;11.75;2.95;;;9.90;99.90;;;;;;5070600;28;20056;-85
2024/01/03 11:39:45;;;;;;;20.38;3.50;;;10.00;99.90;;;;;;5071586;28;20050;-84
2024/01/03 11:42:31;;;;;;;14.45;3.42;;;10.10;99.90;;;;;;5054620;28;20049;-85
2024/01/03 11:45:04;;;;;;;17.38;3.80;;;10.10;99.90;;;;;;5055154;28;20040;-84
2024/01/03 11:47:35;;;;;;;15.32;2.75;;;10.10;99.90;;;;;;5072495;28;20044;-84
2024/01/03 11:50:03;;;;;;;15.05;3.35;;;10.10;99.90;;;;;;5073810;28;20492;-83
2024/01/03 11:52:32;;;;;;;15.00;2.70;;;10.20;99.90;;;;;;5069658;28;20106;-84
2024/01/03 11:55:10;;;;;;;14.48;3.20;;;10.30;99.90;;;;;;5072206;28;20060;-84
2024/01/03 11:58:02;;;;;;;16.33;3.33;;;10.30;99.90;;;;;;5072167;28;20495;-85
2024/01/03 12:00:27;;;;;;;16.35;3.03;;;10.30;99.90;;;;;;5071678;28;20568;-85
2024/01/03 12:02:55;;;;;;;12.70;2.90;;;10.30;99.90;;;;;;5072872;28;20040;-86
2024/01/03 12:05:25;;;;;;;12.73;3.20;;;10.20;99.90;;;;;;5071598;28;20048;-82
2024/01/03 12:07:53;;;;;;;16.35;2.92;;;10.20;99.90;;;;;;5056194;28;20045;-87
2024/01/03 12:10:21;;;;;;;18.05;3.50;;;10.10;99.90;;;;;;5060114;28;20053;-88
2024/01/03 12:12:48;;;;;;;14.43;2.92;;;10.10;99.90;;;;;;5062992;28;20037;-85
2024/01/03 12:15:28;;;;;;;16.52;2.95;;;10.00;99.90;;;;;;5075321;28;20057;-86
2024/01/03 12:18:07;;;;;;;11.55;3.10;;;10.00;99.90;;;;;;5060906;28;20095;-87
2024/01/03 12:20:34;;;;;;;8.32;2.35;;;10.00;99.90;;;;;;5063291;28;20133;-85
2024/01/03 12:23:28;;;;;;;11.18;1.90;;;9.90;99.90;;;;;;5076086;28;20058;-86
2024/01/03 12:25:54;;;;;;;11.63;2.72;;;9.90;99.90;;;;;;5041212;28;20053;-87
2024/01/03 12:28:20;;;;;;;9.90;2.42;;;9.90;99.90;;;;;;5042729;28;20054;-89
2024/01/03 12:30:45;;;;;;;13.55;2.92;;;9.90;99.90;;;;;;5076019;28;20041;-86
2024/01/03 12:33:13;;;;;;;16.70;3.33;;;9.90;99.90;;;;;;5074692;28;20055;-78
2024/01/03 12:35:39;;;;;;;16.23;3.00;;;9.80;99.90;;;;;;5041236;28;20102;-84
2024/01/03 12:38:05;;;;;;;16.40;2.67;;;9.90;99.90;;;;;;5074620;28;20491;-85
2024/01/03 12:40:31;;;;;;;18.50;2.85;;;9.90;99.90;;;;;;5073539;28;20055;-78
2024/01/03 12:42:57;;;;;;;13.07;2.72;;;9.90;99.90;;;;;;5057340;28;20049;-86
2024/01/03 12:45:23;;;;;;;10.50;2.45;;;9.90;99.90;;;;;;5074080;28;20415;-83
2024/01/03 12:47:48;;;;;;;14.88;2.75;;;9.90;99.90;;;;;;5058903;28;20050;-87
2024/01/03 12:50:14;;;;;;;11.00;3.17;;;9.90;99.90;;;;;;5076524;28;20052;-77